Strona główna
METAR-TAF:

METAR-TAF

Lotnisko :

Port lotniczy Psków

Psków, Rosja

Szerokość geograficzna: 57-47-06N, Długość geograficzna: 028-23-54E, wysokość: 47 m

Aktualna obserwacja pogody

Raport powstał 35 minut temu, godzina 08:00 UTC
Wiatr 8 kt od północny wschód, zmienny między północ i wschód
Temperatura 27°C
Wilgotność 54%
Ciśnienie 1013 hPa

METAR: ULOO 160800Z 04004MPS 360V100 P5000 NSC 27/17 Q1013 R19/090070 NOSIG RMK QFE755

czas: 11:35 (08:35 UTC)

Prognoza

Raport powstał 3 godziny i 39 minut temu, godzina 04:56 UTC
Prognoza ważna od 16 godzina 06 UTC do 16 godzina 15 UTC
Wiatr 6 kt od północny wschód
Widzialność 10 km lub więcej
Przerywane chmury na wysokości 2000 ft
Przejściowo
od 16 godzina 09 UTC do 16 godzina 15 UTC
Wiatr 10 kt od wschodnio-północny wschód w porywach dochodzący do 19 kt
Widzialność: 3100 m
Przerywane chmury na wysokości 1500 ft, Cumulonimbus.
burza, słaby deszcz

TAF: ULOO 160456Z 1606/1615 04003MPS 9999 BKN020 TEMPO 1609/1615 07005G10MPS 3100 -TSRA BKN015CB

Obserwacja i prognoza pogody dla ponad 4000 lotnisk (raport METAR i TAF).

Dostępne stacje oznaczono żółtymi i czerwonymi punktami na mapie.

Najedź kursorem aby zobaczyć nazwę stacji.

Kliknij aby zobaczyć obserwacje i prognozy pogody.

Aby zmienić mapę: kliknij na zielony przycisk z czarnym krzyżykiem, aby powiększyć; na zielony przycisk z myślnikiem, aby pomniejszyć; na zielone strzałki, aby przejść do map sąsiednich.


METAR-TAF: